Classifiche di sempre
Migliori tempi personali validi di atleta tra tutti gli eventi e le stagioni. Ogni atleta compare una sola volta per divisione.
Cerca per nome e apri la pagina in cui è classificato questo record di divisione.
105,335 atleti in classifica
| Pos. | Pos. AG | Atleta | Nazionalità | Categoria età | TempoMiglior tempo | Distacco |
|---|---|---|---|---|---|---|
| 84051 | #11748 | Femke De VriesNED · W 16-24 · AG #11748 | NED | W 16-24 | 1:52:22 | +72:46 |
| 84052 | #15548 | Ursula RitzGBR · W 35-39 · AG #15548 | GBR | W 35-39 | 1:52:22 | +72:46 |
| 84053 | #6024 | Rachel GowerGBR · W 45-49 · AG #6024 | GBR | W 45-49 | 1:52:22 | +72:46 |
| 84054 | #11749 | Sonè BrinkRSA · W 16-24 · AG #11749 | RSA | W 16-24 | 1:52:22 | +72:46 |
| 84055 | #20240 | Nallely Malvaez GuzmánMEX · W 30-34 · AG #20240 | MEX | W 30-34 | 1:52:22 | +72:46 |
| 84056 | #11750 | Gwen LaurijsNED · W 16-24 · AG #11750 | NED | W 16-24 | 1:52:22 | +72:46 |
| 84057 | #6025 | 詩婷 黃TPE · W 45-49 · AG #6025 | TPE | W 45-49 | 1:52:22 | +72:46 |
| 84058 | #20241 | Jessica MoncivaisMEX · W 30-34 · AG #20241 | MEX | W 30-34 | 1:52:22 | +72:46 |
| 84059 | #20239 | Morgane DuboisFRA · W 30-34 · AG #20239 | FRA | W 30-34 | 1:52:22 | +72:46 |
| 84060 | #11751 | Patthama TechataweechaiTHA · W 16-24 · AG #11751 | THA | W 16-24 | 1:52:22 | +72:46 |
| 84061 | #10820 | Sandra Guadalupe Rios MujicaMEX · W 40-44 · AG #10820 | MEX | W 40-44 | 1:52:22 | +72:46 |
| 84062 | #20242 | Stephanie AlejandroMEX · W 30-34 · AG #20242 | MEX | W 30-34 | 1:52:22 | +72:46 |
| 84063 | #10821 | Peggy WolframGER · W 40-44 · AG #10821 | GER | W 40-44 | 1:52:23 | +72:47 |
| 84064 | #11752 | Mirella Santillan AstiazaranMEX · W 16-24 · AG #11752 | MEX | W 16-24 | 1:52:23 | +72:47 |
| 84065 | #20482 | Emma SharpGBR · W 25-29 · AG #20482 | GBR | W 25-29 | 1:52:23 | +72:47 |
| 84066 | #15549 | Sara HeycockGBR · W 35-39 · AG #15549 | GBR | W 35-39 | 1:52:23 | +72:47 |
| 84067 | #20243 | Briar KensingtonNZL · W 30-34 · AG #20243 | NZL | W 30-34 | 1:52:23 | +72:47 |
| 84068 | #20244 | Georgie StambaughUSA · W 30-34 · AG #20244 | USA | W 30-34 | 1:52:23 | +72:47 |
| 84069 | #11753 | Jenna PerksGBR · W 16-24 · AG #11753 | GBR | W 16-24 | 1:52:23 | +72:47 |
| 84070 | #20485 | Kaitlin MunroGBR · W 25-29 · AG #20485 | GBR | W 25-29 | 1:52:23 | +72:47 |
| 84071 | #6026 | Lesley CannerGBR · W 45-49 · AG #6026 | GBR | W 45-49 | 1:52:23 | +72:47 |
| 84072 | #2865 | Keri SalingerUSA · W 50-54 · AG #2865 | USA | W 50-54 | 1:52:23 | +72:47 |
| 84073 | #20483 | Sofie BrouwerNED · W 25-29 · AG #20483 | NED | W 25-29 | 1:52:23 | +72:47 |
| 84074 | #357 | Jane RichmondGBR · W 60-64 · AG #357 | GBR | W 60-64 | 1:52:23 | +72:47 |
| 84075 | #20484 | Jytte MoeskopsBEL · W 25-29 · AG #20484 | BEL | W 25-29 | 1:52:23 | +72:47 |
Pagina 3,363 di 4,214